sensor_id;sensor_type;location;lat;lon;timestamp;P1;durP1;ratioP1;P2;durP2;ratioP2
30948;SDS011;17637;51.984;21.208;2022-08-06T00:01:33;18.70;;;13.50;;
30948;SDS011;17637;51.984;21.208;2022-08-06T00:06:38;16.40;;;14.00;;
30948;SDS011;17637;51.984;21.208;2022-08-06T00:11:42;17.52;;;13.45;;
30948;SDS011;17637;51.984;21.208;2022-08-06T00:16:48;15.77;;;14.15;;
30948;SDS011;17637;51.984;21.208;2022-08-06T00:21:58;20.30;;;14.27;;
30948;SDS011;17637;51.984;21.208;2022-08-06T00:27:02;15.57;;;13.98;;
30948;SDS011;17637;51.984;21.208;2022-08-06T00:32:07;16.23;;;14.10;;
30948;SDS011;17637;51.984;21.208;2022-08-06T00:37:27;19.90;;;15.35;;
30948;SDS011;17637;51.984;21.208;2022-08-06T00:42:51;16.08;;;14.35;;
30948;SDS011;17637;51.984;21.208;2022-08-06T00:47:55;21.88;;;17.67;;
30948;SDS011;17637;51.984;21.208;2022-08-06T00:53:09;18.20;;;16.17;;
30948;SDS011;17637;51.984;21.208;2022-08-06T00:58:14;18.90;;;16.70;;
30948;SDS011;17637;51.984;21.208;2022-08-06T01:03:18;20.20;;;18.10;;
30948;SDS011;17637;51.984;21.208;2022-08-06T01:08:43;21.00;;;17.15;;
30948;SDS011;17637;51.984;21.208;2022-08-06T01:13:46;17.92;;;15.18;;
30948;SDS011;17637;51.984;21.208;2022-08-06T01:19:14;18.48;;;16.55;;
30948;SDS011;17637;51.984;21.208;2022-08-06T01:30:22;19.35;;;17.23;;
30948;SDS011;17637;51.984;21.208;2022-08-06T01:35:33;20.73;;;18.63;;
30948;SDS011;17637;51.984;21.208;2022-08-06T01:40:56;20.85;;;17.17;;
30948;SDS011;17637;51.984;21.208;2022-08-06T01:46:04;19.92;;;17.92;;
30948;SDS011;17637;51.984;21.208;2022-08-06T01:51:11;20.75;;;18.27;;
30948;SDS011;17637;51.984;21.208;2022-08-06T01:56:36;18.77;;;16.77;;
30948;SDS011;17637;51.984;21.208;2022-08-06T02:02:02;20.42;;;18.38;;
30948;SDS011;17637;51.984;21.208;2022-08-06T02:07:10;21.80;;;19.55;;
30948;SDS011;17637;51.984;21.208;2022-08-06T02:12:36;21.33;;;18.98;;
30948;SDS011;17637;51.984;21.208;2022-08-06T02:17:45;23.00;;;20.60;;
30948;SDS011;17637;51.984;21.208;2022-08-06T02:23:06;23.42;;;20.05;;
30948;SDS011;17637;51.984;21.208;2022-08-06T02:28:16;26.30;;;22.23;;
30948;SDS011;17637;51.984;21.208;2022-08-06T02:33:28;25.13;;;22.00;;
30948;SDS011;17637;51.984;21.208;2022-08-06T02:38:52;26.38;;;22.20;;
30948;SDS011;17637;51.984;21.208;2022-08-06T02:43:59;28.00;;;23.95;;
30948;SDS011;17637;51.984;21.208;2022-08-06T02:49:12;24.52;;;19.95;;
30948;SDS011;17637;51.984;21.208;2022-08-06T02:54:28;29.45;;;21.45;;
30948;SDS011;17637;51.984;21.208;2022-08-06T02:59:49;26.23;;;22.90;;
30948;SDS011;17637;51.984;21.208;2022-08-06T03:04:59;25.33;;;22.73;;
30948;SDS011;17637;51.984;21.208;2022-08-06T03:10:04;23.30;;;20.85;;
30948;SDS011;17637;51.984;21.208;2022-08-06T03:15:14;24.50;;;20.88;;
30948;SDS011;17637;51.984;21.208;2022-08-06T03:20:41;25.67;;;22.60;;
30948;SDS011;17637;51.984;21.208;2022-08-06T03:25:46;23.95;;;21.52;;
30948;SDS011;17637;51.984;21.208;2022-08-06T03:30:51;26.27;;;22.55;;
30948;SDS011;17637;51.984;21.208;2022-08-06T03:35:59;24.20;;;21.60;;
30948;SDS011;17637;51.984;21.208;2022-08-06T03:41:05;24.65;;;22.10;;
30948;SDS011;17637;51.984;21.208;2022-08-06T03:46:10;26.73;;;23.13;;
30948;SDS011;17637;51.984;21.208;2022-08-06T03:51:17;24.88;;;21.88;;
30948;SDS011;17637;51.984;21.208;2022-08-06T03:56:45;28.27;;;23.83;;
30948;SDS011;17637;51.984;21.208;2022-08-06T04:01:51;24.13;;;21.48;;
30948;SDS011;17637;51.984;21.208;2022-08-06T04:06:58;25.67;;;22.98;;
30948;SDS011;17637;51.984;21.208;2022-08-06T04:12:04;24.80;;;21.90;;
30948;SDS011;17637;51.984;21.208;2022-08-06T04:17:28;26.83;;;24.10;;
30948;SDS011;17637;51.984;21.208;2022-08-06T04:22:39;26.10;;;23.15;;
30948;SDS011;17637;51.984;21.208;2022-08-06T04:28:03;26.48;;;21.67;;
30948;SDS011;17637;51.984;21.208;2022-08-06T04:33:11;19.08;;;16.75;;
30948;SDS011;17637;51.984;21.208;2022-08-06T04:38:18;20.30;;;18.20;;
30948;SDS011;17637;51.984;21.208;2022-08-06T04:43:32;20.65;;;18.55;;
30948;SDS011;17637;51.984;21.208;2022-08-06T04:48:52;20.17;;;17.57;;
30948;SDS011;17637;51.984;21.208;2022-08-06T04:54:04;18.70;;;15.77;;
30948;SDS011;17637;51.984;21.208;2022-08-06T04:59:14;16.98;;;14.48;;
30948;SDS011;17637;51.984;21.208;2022-08-06T05:04:17;17.02;;;14.15;;
30948;SDS011;17637;51.984;21.208;2022-08-06T05:09:25;14.95;;;13.02;;
30948;SDS011;17637;51.984;21.208;2022-08-06T05:14:46;19.02;;;13.82;;
30948;SDS011;17637;51.984;21.208;2022-08-06T05:19:55;15.40;;;13.10;;
30948;SDS011;17637;51.984;21.208;2022-08-06T05:25:03;20.50;;;13.95;;
30948;SDS011;17637;51.984;21.208;2022-08-06T05:30:17;19.30;;;13.15;;
30948;SDS011;17637;51.984;21.208;2022-08-06T05:35:21;18.10;;;13.30;;
30948;SDS011;17637;51.984;21.208;2022-08-06T05:40:44;16.25;;;11.82;;
30948;SDS011;17637;51.984;21.208;2022-08-06T05:46:00;16.83;;;11.52;;
30948;SDS011;17637;51.984;21.208;2022-08-06T05:51:15;13.85;;;11.05;;
30948;SDS011;17637;51.984;21.208;2022-08-06T05:56:46;11.07;;;9.63;;
30948;SDS011;17637;51.984;21.208;2022-08-06T06:01:54;17.17;;;10.82;;
30948;SDS011;17637;51.984;21.208;2022-08-06T06:06:59;14.70;;;10.43;;
30948;SDS011;17637;51.984;21.208;2022-08-06T06:12:11;12.93;;;9.48;;
30948;SDS011;17637;51.984;21.208;2022-08-06T06:17:23;17.45;;;9.82;;
30948;SDS011;17637;51.984;21.208;2022-08-06T06:22:51;10.83;;;9.13;;
30948;SDS011;17637;51.984;21.208;2022-08-06T06:28:02;13.30;;;9.65;;
30948;SDS011;17637;51.984;21.208;2022-08-06T06:33:34;13.05;;;9.60;;
30948;SDS011;17637;51.984;21.208;2022-08-06T06:38:52;10.75;;;9.65;;
30948;SDS011;17637;51.984;21.208;2022-08-06T06:44:08;12.45;;;9.80;;
30948;SDS011;17637;51.984;21.208;2022-08-06T06:49:20;11.50;;;9.30;;
30948;SDS011;17637;51.984;21.208;2022-08-06T06:54:48;12.07;;;9.32;;
30948;SDS011;17637;51.984;21.208;2022-08-06T07:00:08;10.63;;;9.57;;
30948;SDS011;17637;51.984;21.208;2022-08-06T07:05:32;9.70;;;8.15;;
30948;SDS011;17637;51.984;21.208;2022-08-06T07:10:58;8.18;;;7.38;;
30948;SDS011;17637;51.984;21.208;2022-08-06T07:16:06;10.35;;;7.80;;
30948;SDS011;17637;51.984;21.208;2022-08-06T07:21:30;8.65;;;7.40;;
30948;SDS011;17637;51.984;21.208;2022-08-06T07:26:35;7.70;;;6.85;;
30948;SDS011;17637;51.984;21.208;2022-08-06T07:31:53;7.85;;;6.47;;
30948;SDS011;17637;51.984;21.208;2022-08-06T07:36:59;7.93;;;5.75;;
30948;SDS011;17637;51.984;21.208;2022-08-06T07:42:07;7.90;;;6.18;;
30948;SDS011;17637;51.984;21.208;2022-08-06T07:47:15;6.88;;;5.40;;
30948;SDS011;17637;51.984;21.208;2022-08-06T07:52:42;6.82;;;4.72;;
30948;SDS011;17637;51.984;21.208;2022-08-06T07:57:46;5.38;;;4.45;;
30948;SDS011;17637;51.984;21.208;2022-08-06T08:03:00;4.80;;;4.38;;
30948;SDS011;17637;51.984;21.208;2022-08-06T08:08:42;6.15;;;4.40;;
30948;SDS011;17637;51.984;21.208;2022-08-06T08:13:47;4.47;;;4.10;;
30948;SDS011;17637;51.984;21.208;2022-08-06T08:18:59;5.43;;;3.88;;
30948;SDS011;17637;51.984;21.208;2022-08-06T08:24:09;3.60;;;3.30;;
30948;SDS011;17637;51.984;21.208;2022-08-06T08:29:13;4.55;;;3.70;;
30948;SDS011;17637;51.984;21.208;2022-08-06T08:34:31;4.82;;;4.43;;
30948;SDS011;17637;51.984;21.208;2022-08-06T08:39:34;4.30;;;3.90;;
30948;SDS011;17637;51.984;21.208;2022-08-06T08:44:38;4.45;;;4.05;;
30948;SDS011;17637;51.984;21.208;2022-08-06T08:49:46;6.95;;;4.35;;
30948;SDS011;17637;51.984;21.208;2022-08-06T08:54:55;4.25;;;3.85;;
30948;SDS011;17637;51.984;21.208;2022-08-06T09:00:04;6.15;;;3.42;;
30948;SDS011;17637;51.984;21.208;2022-08-06T09:05:13;2.90;;;2.70;;
30948;SDS011;17637;51.984;21.208;2022-08-06T09:10:17;3.50;;;3.20;;
30948;SDS011;17637;51.984;21.208;2022-08-06T09:15:24;4.88;;;3.40;;
30948;SDS011;17637;51.984;21.208;2022-08-06T09:20:29;6.05;;;3.67;;
30948;SDS011;17637;51.984;21.208;2022-08-06T09:25:35;5.13;;;3.40;;
30948;SDS011;17637;51.984;21.208;2022-08-06T09:30:56;7.57;;;6.05;;
30948;SDS011;17637;51.984;21.208;2022-08-06T09:36:03;5.95;;;4.35;;
30948;SDS011;17637;51.984;21.208;2022-08-06T09:41:09;5.10;;;4.63;;
30948;SDS011;17637;51.984;21.208;2022-08-06T09:46:17;6.40;;;3.33;;
30948;SDS011;17637;51.984;21.208;2022-08-06T09:51:24;5.30;;;4.30;;
30948;SDS011;17637;51.984;21.208;2022-08-06T09:56:55;7.13;;;4.15;;
30948;SDS011;17637;51.984;21.208;2022-08-06T10:02:01;4.95;;;3.40;;
30948;SDS011;17637;51.984;21.208;2022-08-06T10:07:27;3.33;;;2.97;;
30948;SDS011;17637;51.984;21.208;2022-08-06T10:12:41;5.70;;;4.03;;
30948;SDS011;17637;51.984;21.208;2022-08-06T10:17:46;4.07;;;2.85;;
30948;SDS011;17637;51.984;21.208;2022-08-06T10:22:55;5.00;;;2.85;;
30948;SDS011;17637;51.984;21.208;2022-08-06T10:28:00;5.47;;;4.13;;
30948;SDS011;17637;51.984;21.208;2022-08-06T10:33:04;5.00;;;4.40;;
30948;SDS011;17637;51.984;21.208;2022-08-06T10:38:25;4.88;;;3.95;;
30948;SDS011;17637;51.984;21.208;2022-08-06T10:43:40;9.23;;;6.05;;
30948;SDS011;17637;51.984;21.208;2022-08-06T10:48:47;6.28;;;4.35;;
30948;SDS011;17637;51.984;21.208;2022-08-06T10:54:12;7.47;;;5.10;;
30948;SDS011;17637;51.984;21.208;2022-08-06T10:59:20;6.15;;;4.55;;
30948;SDS011;17637;51.984;21.208;2022-08-06T11:04:45;7.82;;;5.60;;
30948;SDS011;17637;51.984;21.208;2022-08-06T11:15:32;6.97;;;4.13;;
30948;SDS011;17637;51.984;21.208;2022-08-06T11:20:40;6.88;;;4.32;;
30948;SDS011;17637;51.984;21.208;2022-08-06T11:25:48;7.75;;;4.60;;
30948;SDS011;17637;51.984;21.208;2022-08-06T11:30:56;7.43;;;4.75;;
30948;SDS011;17637;51.984;21.208;2022-08-06T11:36:04;6.43;;;5.10;;
30948;SDS011;17637;51.984;21.208;2022-08-06T11:41:16;4.50;;;3.83;;
30948;SDS011;17637;51.984;21.208;2022-08-06T11:46:41;6.07;;;3.95;;
30948;SDS011;17637;51.984;21.208;2022-08-06T11:51:51;7.80;;;4.68;;
30948;SDS011;17637;51.984;21.208;2022-08-06T11:57:19;5.22;;;3.83;;
30948;SDS011;17637;51.984;21.208;2022-08-06T12:02:44;9.85;;;4.18;;
30948;SDS011;17637;51.984;21.208;2022-08-06T12:08:21;6.63;;;3.85;;
30948;SDS011;17637;51.984;21.208;2022-08-06T12:13:45;4.97;;;3.80;;
30948;SDS011;17637;51.984;21.208;2022-08-06T12:19:12;5.93;;;4.05;;
30948;SDS011;17637;51.984;21.208;2022-08-06T12:24:21;5.53;;;4.60;;
30948;SDS011;17637;51.984;21.208;2022-08-06T12:29:30;4.45;;;3.95;;
30948;SDS011;17637;51.984;21.208;2022-08-06T12:34:43;6.65;;;2.92;;
30948;SDS011;17637;51.984;21.208;2022-08-06T12:40:00;2.65;;;2.17;;
30948;SDS011;17637;51.984;21.208;2022-08-06T12:45:24;3.45;;;2.13;;
30948;SDS011;17637;51.984;21.208;2022-08-06T12:50:47;3.45;;;1.80;;
30948;SDS011;17637;51.984;21.208;2022-08-06T12:55:53;8.07;;;2.30;;
30948;SDS011;17637;51.984;21.208;2022-08-06T13:01:00;7.43;;;2.60;;
30948;SDS011;17637;51.984;21.208;2022-08-06T13:06:08;2.70;;;1.90;;
30948;SDS011;17637;51.984;21.208;2022-08-06T13:11:34;2.75;;;2.35;;
30948;SDS011;17637;51.984;21.208;2022-08-06T13:16:40;4.88;;;2.55;;
30948;SDS011;17637;51.984;21.208;2022-08-06T13:21:57;4.78;;;2.30;;
30948;SDS011;17637;51.984;21.208;2022-08-06T13:27:02;4.90;;;2.22;;
30948;SDS011;17637;51.984;21.208;2022-08-06T13:32:10;6.07;;;2.30;;
30948;SDS011;17637;51.984;21.208;2022-08-06T13:37:40;7.53;;;2.60;;
30948;SDS011;17637;51.984;21.208;2022-08-06T13:48:11;5.93;;;2.00;;
30948;SDS011;17637;51.984;21.208;2022-08-06T13:53:23;3.03;;;1.80;;
30948;SDS011;17637;51.984;21.208;2022-08-06T13:58:46;5.25;;;2.22;;
30948;SDS011;17637;51.984;21.208;2022-08-06T14:03:51;2.90;;;1.70;;
30948;SDS011;17637;51.984;21.208;2022-08-06T14:08:55;3.70;;;1.60;;
30948;SDS011;17637;51.984;21.208;2022-08-06T14:14:01;4.13;;;1.40;;
30948;SDS011;17637;51.984;21.208;2022-08-06T14:19:05;3.70;;;1.35;;
30948;SDS011;17637;51.984;21.208;2022-08-06T14:24:28;2.75;;;1.65;;
30948;SDS011;17637;51.984;21.208;2022-08-06T14:29:37;4.88;;;1.40;;
30948;SDS011;17637;51.984;21.208;2022-08-06T14:35:02;4.13;;;1.52;;
30948;SDS011;17637;51.984;21.208;2022-08-06T14:40:06;2.45;;;1.27;;
30948;SDS011;17637;51.984;21.208;2022-08-06T14:45:12;2.45;;;0.88;;
30948;SDS011;17637;51.984;21.208;2022-08-06T14:50:24;3.75;;;1.35;;
30948;SDS011;17637;51.984;21.208;2022-08-06T14:55:39;2.42;;;1.10;;
30948;SDS011;17637;51.984;21.208;2022-08-06T15:01:02;2.95;;;1.10;;
30948;SDS011;17637;51.984;21.208;2022-08-06T15:06:19;2.97;;;1.20;;
30948;SDS011;17637;51.984;21.208;2022-08-06T15:11:31;4.32;;;1.27;;
30948;SDS011;17637;51.984;21.208;2022-08-06T15:16:54;2.63;;;1.13;;
30948;SDS011;17637;51.984;21.208;2022-08-06T15:22:18;7.85;;;1.38;;
30948;SDS011;17637;51.984;21.208;2022-08-06T15:27:37;2.85;;;1.10;;
30948;SDS011;17637;51.984;21.208;2022-08-06T15:32:40;2.33;;;1.00;;
30948;SDS011;17637;51.984;21.208;2022-08-06T15:37:59;4.32;;;1.30;;
30948;SDS011;17637;51.984;21.208;2022-08-06T15:43:09;2.75;;;1.10;;
30948;SDS011;17637;51.984;21.208;2022-08-06T15:48:15;2.42;;;1.23;;
30948;SDS011;17637;51.984;21.208;2022-08-06T15:53:30;1.52;;;1.08;;
30948;SDS011;17637;51.984;21.208;2022-08-06T15:58:37;3.28;;;1.40;;
30948;SDS011;17637;51.984;21.208;2022-08-06T16:03:40;4.03;;;1.15;;
30948;SDS011;17637;51.984;21.208;2022-08-06T16:09:00;4.20;;;1.25;;
30948;SDS011;17637;51.984;21.208;2022-08-06T16:14:04;3.97;;;1.20;;
30948;SDS011;17637;51.984;21.208;2022-08-06T16:19:12;4.50;;;2.25;;
30948;SDS011;17637;51.984;21.208;2022-08-06T16:24:24;4.30;;;2.00;;
30948;SDS011;17637;51.984;21.208;2022-08-06T16:29:27;2.72;;;1.20;;
30948;SDS011;17637;51.984;21.208;2022-08-06T16:34:30;6.07;;;1.50;;
30948;SDS011;17637;51.984;21.208;2022-08-06T16:39:39;3.15;;;1.20;;
30948;SDS011;17637;51.984;21.208;2022-08-06T16:45:01;1.92;;;1.10;;
30948;SDS011;17637;51.984;21.208;2022-08-06T16:50:25;5.60;;;1.10;;
30948;SDS011;17637;51.984;21.208;2022-08-06T16:55:39;2.10;;;1.20;;
30948;SDS011;17637;51.984;21.208;2022-08-06T17:00:45;7.20;;;1.10;;
30948;SDS011;17637;51.984;21.208;2022-08-06T17:06:09;4.70;;;1.65;;
30948;SDS011;17637;51.984;21.208;2022-08-06T17:11:20;3.33;;;1.20;;
30948;SDS011;17637;51.984;21.208;2022-08-06T17:16:43;3.80;;;1.23;;
30948;SDS011;17637;51.984;21.208;2022-08-06T17:21:49;2.65;;;1.50;;
30948;SDS011;17637;51.984;21.208;2022-08-06T17:27:02;2.70;;;1.35;;
30948;SDS011;17637;51.984;21.208;2022-08-06T17:32:25;3.78;;;1.70;;
30948;SDS011;17637;51.984;21.208;2022-08-06T17:37:36;3.42;;;1.75;;
30948;SDS011;17637;51.984;21.208;2022-08-06T17:42:47;4.88;;;2.22;;
30948;SDS011;17637;51.984;21.208;2022-08-06T17:47:53;5.80;;;2.30;;
30948;SDS011;17637;51.984;21.208;2022-08-06T17:52:57;3.22;;;2.25;;
30948;SDS011;17637;51.984;21.208;2022-08-06T17:58:21;4.75;;;2.25;;
30948;SDS011;17637;51.984;21.208;2022-08-06T18:03:40;4.55;;;2.25;;
30948;SDS011;17637;51.984;21.208;2022-08-06T18:14:00;3.40;;;2.92;;
30948;SDS011;17637;51.984;21.208;2022-08-06T18:19:05;7.20;;;3.47;;
30948;SDS011;17637;51.984;21.208;2022-08-06T18:24:12;6.95;;;3.70;;
30948;SDS011;17637;51.984;21.208;2022-08-06T18:29:18;7.00;;;4.00;;
30948;SDS011;17637;51.984;21.208;2022-08-06T18:34:22;5.63;;;4.10;;
30948;SDS011;17637;51.984;21.208;2022-08-06T18:39:30;6.18;;;4.70;;
30948;SDS011;17637;51.984;21.208;2022-08-06T18:44:55;9.07;;;5.25;;
30948;SDS011;17637;51.984;21.208;2022-08-06T18:50:02;12.00;;;6.85;;
30948;SDS011;17637;51.984;21.208;2022-08-06T18:55:05;10.23;;;6.50;;
30948;SDS011;17637;51.984;21.208;2022-08-06T19:00:29;15.05;;;8.15;;
30948;SDS011;17637;51.984;21.208;2022-08-06T19:05:35;18.60;;;14.25;;
30948;SDS011;17637;51.984;21.208;2022-08-06T19:10:45;23.23;;;14.43;;
30948;SDS011;17637;51.984;21.208;2022-08-06T19:15:50;14.30;;;11.68;;
30948;SDS011;17637;51.984;21.208;2022-08-06T19:20:53;17.23;;;11.70;;
30948;SDS011;17637;51.984;21.208;2022-08-06T19:26:00;15.38;;;11.52;;
30948;SDS011;17637;51.984;21.208;2022-08-06T19:31:15;18.40;;;11.82;;
30948;SDS011;17637;51.984;21.208;2022-08-06T19:36:24;17.15;;;11.70;;
30948;SDS011;17637;51.984;21.208;2022-08-06T19:41:33;14.35;;;10.85;;
30948;SDS011;17637;51.984;21.208;2022-08-06T19:46:57;16.58;;;10.68;;
30948;SDS011;17637;51.984;21.208;2022-08-06T19:52:01;14.68;;;11.13;;
30948;SDS011;17637;51.984;21.208;2022-08-06T19:57:07;14.18;;;10.52;;
30948;SDS011;17637;51.984;21.208;2022-08-06T20:02:17;14.15;;;9.63;;
30948;SDS011;17637;51.984;21.208;2022-08-06T20:07:22;13.80;;;10.25;;
30948;SDS011;17637;51.984;21.208;2022-08-06T20:12:35;13.05;;;9.52;;
30948;SDS011;17637;51.984;21.208;2022-08-06T20:17:41;14.25;;;10.10;;
30948;SDS011;17637;51.984;21.208;2022-08-06T20:27:57;14.50;;;10.18;;
30948;SDS011;17637;51.984;21.208;2022-08-06T20:33:23;13.23;;;9.82;;
30948;SDS011;17637;51.984;21.208;2022-08-06T20:38:28;11.40;;;8.25;;
30948;SDS011;17637;51.984;21.208;2022-08-06T20:43:41;15.95;;;10.20;;
30948;SDS011;17637;51.984;21.208;2022-08-06T20:49:06;34.80;;;24.20;;
30948;SDS011;17637;51.984;21.208;2022-08-06T20:54:14;45.75;;;35.03;;
30948;SDS011;17637;51.984;21.208;2022-08-06T20:59:19;46.92;;;39.40;;
30948;SDS011;17637;51.984;21.208;2022-08-06T21:04:36;49.35;;;41.80;;
30948;SDS011;17637;51.984;21.208;2022-08-06T21:09:59;37.20;;;32.25;;
30948;SDS011;17637;51.984;21.208;2022-08-06T21:15:03;29.17;;;25.58;;
30948;SDS011;17637;51.984;21.208;2022-08-06T21:20:14;31.23;;;27.83;;
30948;SDS011;17637;51.984;21.208;2022-08-06T21:25:22;35.13;;;25.33;;
30948;SDS011;17637;51.984;21.208;2022-08-06T21:30:30;28.50;;;21.33;;
30948;SDS011;17637;51.984;21.208;2022-08-06T21:35:35;20.17;;;15.60;;
30948;SDS011;17637;51.984;21.208;2022-08-06T21:40:38;21.10;;;17.35;;
30948;SDS011;17637;51.984;21.208;2022-08-06T21:45:41;24.75;;;19.05;;
30948;SDS011;17637;51.984;21.208;2022-08-06T21:51:06;16.23;;;14.05;;
30948;SDS011;17637;51.984;21.208;2022-08-06T21:56:11;23.17;;;16.05;;
30948;SDS011;17637;51.984;21.208;2022-08-06T22:01:35;25.98;;;15.98;;
30948;SDS011;17637;51.984;21.208;2022-08-06T22:06:59;17.55;;;13.45;;
30948;SDS011;17637;51.984;21.208;2022-08-06T22:12:03;17.92;;;14.63;;
30948;SDS011;17637;51.984;21.208;2022-08-06T22:17:26;14.88;;;10.63;;
30948;SDS011;17637;51.984;21.208;2022-08-06T22:22:51;20.48;;;11.55;;
30948;SDS011;17637;51.984;21.208;2022-08-06T22:27:56;12.75;;;9.43;;
30948;SDS011;17637;51.984;21.208;2022-08-06T22:33:04;11.40;;;8.18;;
30948;SDS011;17637;51.984;21.208;2022-08-06T22:38:14;15.00;;;11.25;;
30948;SDS011;17637;51.984;21.208;2022-08-06T22:43:24;14.77;;;10.95;;
30948;SDS011;17637;51.984;21.208;2022-08-06T22:48:47;18.20;;;12.20;;
30948;SDS011;17637;51.984;21.208;2022-08-06T22:53:52;16.15;;;11.88;;
30948;SDS011;17637;51.984;21.208;2022-08-06T22:59:16;17.48;;;11.13;;
30948;SDS011;17637;51.984;21.208;2022-08-06T23:04:33;9.82;;;6.22;;
30948;SDS011;17637;51.984;21.208;2022-08-06T23:09:39;8.52;;;6.03;;
30948;SDS011;17637;51.984;21.208;2022-08-06T23:14:52;11.07;;;5.63;;
30948;SDS011;17637;51.984;21.208;2022-08-06T23:19:56;11.32;;;6.68;;
30948;SDS011;17637;51.984;21.208;2022-08-06T23:25:00;11.77;;;5.32;;
30948;SDS011;17637;51.984;21.208;2022-08-06T23:30:23;8.85;;;5.47;;
30948;SDS011;17637;51.984;21.208;2022-08-06T23:35:27;8.05;;;4.82;;
30948;SDS011;17637;51.984;21.208;2022-08-06T23:40:40;5.75;;;4.15;;
30948;SDS011;17637;51.984;21.208;2022-08-06T23:45:43;8.20;;;4.57;;
30948;SDS011;17637;51.984;21.208;2022-08-06T23:50:49;7.18;;;4.00;;
30948;SDS011;17637;51.984;21.208;2022-08-06T23:55:57;7.47;;;3.00;;
